createdAt,value
2023-04-05T00:00:15.780Z,-0.54
2023-04-05T00:01:15.819Z,-0.55
2023-04-05T00:02:15.789Z,-0.55
2023-04-05T00:03:15.849Z,-0.55
2023-04-05T00:04:15.826Z,-0.56
2023-04-05T00:05:15.814Z,-0.58
2023-04-05T00:06:15.807Z,-0.59
2023-04-05T00:07:15.804Z,-0.60
2023-04-05T00:08:15.824Z,-0.61
2023-04-05T00:09:15.813Z,-0.61
2023-04-05T00:10:15.803Z,-0.62
2023-04-05T00:11:15.805Z,-0.63
2023-04-05T00:12:15.792Z,-0.63
2023-04-05T00:13:15.830Z,-0.62
2023-04-05T00:14:15.817Z,-0.63
2023-04-05T00:15:15.807Z,-0.62
2023-04-05T00:16:15.877Z,-0.63
2023-04-05T00:17:15.801Z,-0.64
2023-04-05T00:18:15.829Z,-0.62
2023-04-05T00:19:15.808Z,-0.62
2023-04-05T00:20:15.814Z,-0.62
2023-04-05T00:21:15.825Z,-0.61
2023-04-05T00:22:15.813Z,-0.63
2023-04-05T00:23:15.846Z,-0.63
2023-04-05T00:24:15.911Z,-0.63
2023-04-05T00:25:15.817Z,-0.63
2023-04-05T00:26:15.807Z,-0.62
2023-04-05T00:27:15.859Z,-0.62
2023-04-05T00:28:15.818Z,-0.62
2023-04-05T00:29:15.831Z,-0.58
2023-04-05T00:30:15.825Z,-0.58
2023-04-05T00:31:15.808Z,-0.58
2023-04-05T00:32:15.826Z,-0.59
2023-04-05T00:33:15.826Z,-0.60
2023-04-05T00:34:15.853Z,-0.61
2023-04-05T00:35:15.834Z,-0.62
2023-04-05T00:36:15.852Z,-0.63
2023-04-05T00:37:15.823Z,-0.63
2023-04-05T00:38:15.823Z,-0.63
2023-04-05T00:39:15.862Z,-0.64
2023-04-05T00:40:15.845Z,-0.66
2023-04-05T00:41:15.839Z,-0.66
2023-04-05T00:42:15.853Z,-0.68
2023-04-05T00:43:15.835Z,-0.69
2023-04-05T00:44:15.839Z,-0.72
2023-04-05T00:45:15.872Z,-0.70
2023-04-05T00:46:15.853Z,-0.73
2023-04-05T00:47:15.816Z,-0.74
2023-04-05T00:48:15.823Z,-0.76
2023-04-05T00:49:15.848Z,-0.78
2023-04-05T00:50:15.868Z,-0.79
2023-04-05T00:51:15.846Z,-0.80
2023-04-05T00:52:15.939Z,-0.82
2023-04-05T00:53:15.844Z,-0.84
2023-04-05T00:54:15.849Z,-0.85
2023-04-05T00:55:15.853Z,-0.85
2023-04-05T00:56:15.840Z,-0.87
2023-04-05T00:57:15.848Z,-0.89
2023-04-05T00:58:15.854Z,-0.91
2023-04-05T00:59:15.949Z,-0.94
2023-04-05T01:00:15.854Z,-0.95
2023-04-05T01:01:15.878Z,-0.98
2023-04-05T01:02:15.861Z,-1.01
2023-04-05T01:03:15.904Z,-1.02
2023-04-05T01:04:15.892Z,-1.01
2023-04-05T01:05:15.864Z,-1.02
2023-04-05T01:06:16.273Z,-1.03
2023-04-05T01:07:15.860Z,-1.04
2023-04-05T01:08:15.878Z,-1.04
2023-04-05T01:09:15.858Z,-1.04
2023-04-05T01:10:15.872Z,-1.06
2023-04-05T01:11:15.851Z,-1.06
2023-04-05T01:12:15.840Z,-1.06
2023-04-05T01:13:15.845Z,-1.07
2023-04-05T01:14:15.882Z,-1.10
2023-04-05T01:15:15.871Z,-1.10
2023-04-05T01:16:15.893Z,-1.11
2023-04-05T01:17:15.852Z,-1.11
2023-04-05T01:18:15.830Z,-1.12
2023-04-05T01:19:15.858Z,-1.13
2023-04-05T01:20:15.866Z,-1.13
2023-04-05T01:21:15.891Z,-1.13
2023-04-05T01:22:15.829Z,-1.14
2023-04-05T01:23:15.855Z,-1.15
2023-04-05T01:24:15.885Z,-1.17
2023-04-05T01:25:15.876Z,-1.17
2023-04-05T01:26:15.886Z,-1.17
2023-04-05T01:27:15.854Z,-1.17
2023-04-05T01:28:15.865Z,-1.19
2023-04-05T01:29:37.653Z,-1.19
2023-04-05T01:30:37.685Z,-1.19
2023-04-05T01:31:37.854Z,-1.19
2023-04-05T01:32:37.643Z,-1.19
2023-04-05T01:33:37.679Z,-1.19
2023-04-05T01:34:37.681Z,-1.19
2023-04-05T01:35:37.701Z,-1.20
2023-04-05T01:36:37.666Z,-1.19
2023-04-05T01:37:37.693Z,-1.19
2023-04-05T01:38:37.669Z,-1.20
2023-04-05T01:39:37.685Z,-1.21
2023-04-05T01:40:37.675Z,-1.22
2023-04-05T01:41:37.669Z,-1.24
2023-04-05T01:42:37.701Z,-1.25
2023-04-05T01:43:37.695Z,-1.28
2023-04-05T01:44:37.693Z,-1.31
2023-04-05T01:45:37.698Z,-1.33
2023-04-05T01:46:37.713Z,-1.35
2023-04-05T01:47:37.751Z,-1.37
2023-04-05T01:48:37.683Z,-1.40
2023-04-05T01:49:37.683Z,-1.41
2023-04-05T01:50:37.683Z,-1.43
2023-04-05T01:51:37.689Z,-1.43
2023-04-05T01:52:37.708Z,-1.46
2023-04-05T01:53:37.704Z,-1.48
2023-04-05T01:54:37.679Z,-1.49
2023-04-05T01:55:37.705Z,-1.51
2023-04-05T01:56:37.689Z,-1.52
2023-04-05T01:57:37.692Z,-1.52
2023-04-05T01:58:37.676Z,-1.55
2023-04-05T01:59:37.721Z,-1.55
2023-04-05T02:00:37.677Z,-1.55
2023-04-05T02:01:37.695Z,-1.57
2023-04-05T02:02:37.829Z,-1.57
2023-04-05T02:03:37.758Z,-1.58
2023-04-05T02:04:37.698Z,-1.59
2023-04-05T02:05:37.828Z,-1.61
2023-04-05T02:06:37.844Z,-1.63
2023-04-05T02:07:37.850Z,-1.65
2023-04-05T02:08:37.866Z,-1.67
2023-04-05T02:09:37.874Z,-1.69
2023-04-05T02:10:37.945Z,-1.68
2023-04-05T02:11:37.887Z,-1.71
2023-04-05T02:12:37.907Z,-1.73
2023-04-05T02:13:37.932Z,-1.74
2023-04-05T02:14:37.943Z,-1.73
2023-04-05T02:15:37.933Z,-1.74
2023-04-05T02:16:38.012Z,-1.76
2023-04-05T02:17:38.033Z,-1.78
2023-04-05T02:18:37.975Z,-1.80
2023-04-05T02:19:37.980Z,-1.81
2023-04-05T02:20:38.232Z,-1.84
2023-04-05T02:21:38.001Z,-1.84
2023-04-05T02:22:38.056Z,-1.86
2023-04-05T02:23:38.037Z,-1.85
2023-04-05T02:24:38.046Z,-1.85
2023-04-05T02:25:38.062Z,-1.85
2023-04-05T02:26:38.091Z,-1.86
2023-04-05T02:27:38.168Z,-1.86
2023-04-05T02:28:38.101Z,-1.86
2023-04-05T02:29:38.108Z,-1.86
2023-04-05T02:30:38.124Z,-1.87
2023-04-05T02:31:38.174Z,-1.88
2023-04-05T02:32:38.165Z,-1.88
2023-04-05T02:33:38.176Z,-1.89
2023-04-05T02:34:38.151Z,-1.90
2023-04-05T02:35:38.216Z,-1.92
2023-04-05T02:36:38.290Z,-1.93
2023-04-05T02:37:38.204Z,-1.96
2023-04-05T02:38:38.222Z,-1.97
2023-04-05T02:39:38.217Z,-1.98
2023-04-05T02:40:38.229Z,-1.99
2023-04-05T02:41:38.253Z,-2.00
2023-04-05T02:42:38.276Z,-2.03
2023-04-05T02:43:38.284Z,-2.04
2023-04-05T02:44:38.273Z,-2.05
2023-04-05T02:45:38.307Z,-2.05
2023-04-05T02:46:38.311Z,-2.06
2023-04-05T02:47:38.372Z,-2.06
2023-04-05T02:48:38.362Z,-2.07
2023-04-05T02:49:38.347Z,-2.05
2023-04-05T02:50:38.464Z,-2.06
2023-04-05T02:51:38.373Z,-2.06
2023-04-05T02:52:38.374Z,-2.08
2023-04-05T02:53:38.409Z,-2.09
2023-04-05T02:54:38.426Z,-2.11
2023-04-05T02:55:38.409Z,-2.11
2023-04-05T02:56:38.432Z,-2.14
2023-04-05T02:57:38.432Z,-2.16
2023-04-05T02:58:38.467Z,-2.16
2023-04-05T02:59:38.457Z,-2.16
2023-04-05T03:00:38.874Z,-2.16
2023-04-05T03:01:38.514Z,-2.17
2023-04-05T03:02:38.526Z,-2.16
2023-04-05T03:03:38.569Z,-2.15
2023-04-05T03:04:38.529Z,-2.16
2023-04-05T03:05:38.855Z,-2.17
2023-04-05T03:06:38.540Z,-2.19
2023-04-05T03:07:38.564Z,-2.20
2023-04-05T03:08:38.595Z,-2.21
2023-04-05T03:09:38.785Z,-2.22
2023-04-05T03:10:38.594Z,-2.23
2023-04-05T03:11:38.635Z,-2.22
2023-04-05T03:12:38.610Z,-2.24
2023-04-05T03:13:38.628Z,-2.25
2023-04-05T03:14:38.629Z,-2.26
2023-04-05T03:15:38.835Z,-2.26
2023-04-05T03:16:39.881Z,-2.27
2023-04-05T03:17:38.679Z,-2.28
2023-04-05T03:18:38.685Z,-2.29
2023-04-05T03:19:38.701Z,-2.30
2023-04-05T03:20:38.709Z,-2.31
2023-04-05T03:21:38.744Z,-2.31
2023-04-05T03:22:38.732Z,-2.30
2023-04-05T03:23:38.735Z,-2.29
2023-04-05T03:24:38.753Z,-2.30
2023-04-05T03:25:38.970Z,-2.29
2023-04-05T03:26:38.788Z,-2.29
2023-04-05T03:27:38.802Z,-2.30
2023-04-05T03:28:38.819Z,-2.30
2023-04-05T03:29:38.827Z,-2.31
2023-04-05T03:30:38.818Z,-2.34
2023-04-05T03:31:38.900Z,-2.35
2023-04-05T03:32:38.991Z,-2.37
2023-04-05T03:33:38.863Z,-2.37
2023-04-05T03:34:38.869Z,-2.38
2023-04-05T03:35:39.179Z,-2.39
2023-04-05T03:36:38.897Z,-2.40
2023-04-05T03:37:38.922Z,-2.40
2023-04-05T03:38:40.324Z,-2.42
2023-04-05T03:39:38.919Z,-2.43
2023-04-05T03:40:38.951Z,-2.43
2023-04-05T03:41:38.922Z,-2.45
2023-04-05T03:42:38.916Z,-2.45
2023-04-05T03:43:38.952Z,-2.47
2023-04-05T03:44:38.917Z,-2.47
2023-04-05T03:45:39.047Z,-2.47
2023-04-05T03:46:38.953Z,-2.49
2023-04-05T03:47:38.975Z,-2.52
2023-04-05T03:48:38.956Z,-2.52
2023-04-05T03:49:38.933Z,-2.52
2023-04-05T03:50:38.934Z,-2.52
2023-04-05T03:51:38.940Z,-2.52
2023-04-05T03:52:38.931Z,-2.53
2023-04-05T03:53:38.935Z,-2.53
2023-04-05T03:54:38.948Z,-2.55
2023-04-05T03:55:39.091Z,-2.58
2023-04-05T03:56:38.931Z,-2.58
2023-04-05T03:57:39.009Z,-2.60
2023-04-05T03:58:38.934Z,-2.60
2023-04-05T03:59:38.962Z,-2.60
2023-04-05T04:00:38.926Z,-2.60
2023-04-05T04:01:38.975Z,-2.62
2023-04-05T04:02:38.980Z,-2.61
2023-04-05T04:03:38.932Z,-2.63
2023-04-05T04:04:38.985Z,-2.62
2023-04-05T04:05:39.529Z,-2.63
2023-04-05T04:06:39.064Z,-2.64
2023-04-05T04:07:38.931Z,-2.65
2023-04-05T04:08:38.942Z,-2.67
2023-04-05T04:09:38.943Z,-2.69
2023-04-05T04:10:38.950Z,-2.70
2023-04-05T04:11:38.957Z,-2.70
2023-04-05T04:12:38.938Z,-2.71
2023-04-05T04:13:38.953Z,-2.71
2023-04-05T04:14:38.959Z,-2.72
2023-04-05T04:15:39.274Z,-2.73
2023-04-05T04:16:38.998Z,-2.73
2023-04-05T04:17:39.002Z,-2.74
2023-04-05T04:18:38.933Z,-2.75
2023-04-05T04:19:38.943Z,-2.77
2023-04-05T04:20:38.961Z,-2.78
2023-04-05T04:21:38.945Z,-2.80
2023-04-05T04:22:38.961Z,-2.81
2023-04-05T04:23:38.949Z,-2.84
2023-04-05T04:24:38.953Z,-2.84
2023-04-05T04:25:39.246Z,-2.85
2023-04-05T04:26:38.969Z,-2.86
2023-04-05T04:27:38.948Z,-2.88
2023-04-05T04:28:38.964Z,-2.88
2023-04-05T04:29:39.019Z,-2.88
2023-04-05T04:30:38.964Z,-2.90
2023-04-05T04:31:38.983Z,-2.91
2023-04-05T04:32:38.980Z,-2.92
2023-04-05T04:33:38.958Z,-2.93
2023-04-05T04:34:38.983Z,-2.96
2023-04-05T04:35:39.480Z,-2.95
2023-04-05T04:36:38.962Z,-2.97
2023-04-05T04:37:38.957Z,-2.96
2023-04-05T04:38:38.960Z,-2.96
2023-04-05T04:39:38.966Z,-2.97
2023-04-05T04:40:39.063Z,-2.94
2023-04-05T04:41:38.972Z,-2.95
2023-04-05T04:42:39.005Z,-2.95
2023-04-05T04:43:38.962Z,-2.96
2023-04-05T04:44:38.966Z,-2.96
2023-04-05T04:45:39.265Z,-2.96
2023-04-05T04:46:38.987Z,-2.96
2023-04-05T04:47:38.996Z,-2.97
2023-04-05T04:48:38.983Z,-2.97
2023-04-05T04:49:38.980Z,-2.97
2023-04-05T04:50:38.997Z,-2.98
2023-04-05T04:51:38.988Z,-3.00
2023-04-05T04:52:38.973Z,-3.02
2023-04-05T04:53:38.987Z,-3.02
2023-04-05T04:54:38.986Z,-3.03
2023-04-05T04:55:39.199Z,-3.03
2023-04-05T04:56:39.005Z,-3.03
2023-04-05T04:57:38.990Z,-3.04
2023-04-05T04:58:38.988Z,-3.05
2023-04-05T04:59:38.975Z,-3.05
2023-04-05T05:00:39.124Z,-3.04
2023-04-05T05:01:38.983Z,-3.04
2023-04-05T05:02:39.012Z,-3.05
2023-04-05T05:03:39.019Z,-3.05
2023-04-05T05:04:38.990Z,-3.04
2023-04-05T05:05:38.974Z,-3.05
2023-04-05T05:06:39.000Z,-3.05
2023-04-05T05:07:39.001Z,-3.04
2023-04-05T05:08:39.011Z,-3.03
2023-04-05T05:09:38.996Z,-3.02
2023-04-05T05:10:39.153Z,-3.04
2023-04-05T05:11:38.993Z,-3.03
2023-04-05T05:12:39.013Z,-3.02
2023-04-05T05:13:38.993Z,-3.03
2023-04-05T05:14:39.000Z,-3.02
2023-04-05T05:15:39.025Z,-3.02
2023-04-05T05:16:39.065Z,-3.03
2023-04-05T05:17:39.085Z,-3.02
2023-04-05T05:18:39.056Z,-3.01
2023-04-05T05:19:39.083Z,-3.00
2023-04-05T05:20:39.354Z,-3.00
2023-04-05T05:21:39.098Z,-3.00
2023-04-05T05:22:39.100Z,-3.00
2023-04-05T05:23:39.103Z,-3.00
2023-04-05T05:24:39.123Z,-2.99
2023-04-05T05:25:39.132Z,-2.98
2023-04-05T05:26:39.149Z,-2.96
2023-04-05T05:27:39.164Z,-2.96
2023-04-05T05:28:39.191Z,-2.95
2023-04-05T05:29:39.210Z,-2.96
2023-04-05T05:30:39.377Z,-2.96
2023-04-05T05:31:39.211Z,-2.94
2023-04-05T05:32:40.759Z,-2.93
2023-04-05T05:33:39.253Z,-2.92
2023-04-05T05:34:39.226Z,-2.92
2023-04-05T05:35:39.238Z,-2.91
2023-04-05T05:36:39.223Z,-2.91
2023-04-05T05:37:39.216Z,-2.90
2023-04-05T05:38:39.233Z,-2.91
2023-04-05T05:39:39.223Z,-2.92
2023-04-05T05:40:39.462Z,-2.92
2023-04-05T05:41:39.247Z,-2.91
2023-04-05T05:42:39.217Z,-2.90
2023-04-05T05:43:39.236Z,-2.90
2023-04-05T05:44:39.253Z,-2.91
2023-04-05T05:45:39.223Z,-2.91
2023-04-05T05:46:39.260Z,-2.90
2023-04-05T05:47:39.287Z,-2.90
2023-04-05T05:48:39.217Z,-2.89
2023-04-05T05:49:39.239Z,-2.87
2023-04-05T05:51:39.247Z,-2.82
2023-04-05T05:52:39.204Z,-2.81
2023-04-05T05:53:39.222Z,-2.77
2023-04-05T05:54:39.252Z,-2.75
2023-04-05T05:55:39.287Z,-2.73
2023-04-05T05:56:39.245Z,-2.72
2023-04-05T05:57:39.239Z,-2.71
2023-04-05T05:58:39.255Z,-2.68
2023-04-05T05:59:39.269Z,-2.65
2023-04-05T06:00:39.601Z,-2.61
2023-04-05T06:01:39.235Z,-2.59
2023-04-05T06:02:39.427Z,-2.55
2023-04-05T06:03:39.474Z,-2.51
2023-04-05T06:04:39.293Z,-2.47
2023-04-05T06:05:39.236Z,-2.45
2023-04-05T06:06:39.246Z,-2.42
2023-04-05T06:07:39.238Z,-2.39
2023-04-05T06:08:39.247Z,-2.35
2023-04-05T06:09:39.243Z,-2.31
2023-04-05T06:10:39.517Z,-2.29
2023-04-05T06:11:49.533Z,-2.25
2023-04-05T06:12:39.250Z,-2.22
2023-04-05T06:13:39.245Z,-2.19
2023-04-05T06:14:39.257Z,-2.14
2023-04-05T06:15:39.242Z,-2.12
2023-04-05T06:16:39.303Z,-2.08
2023-04-05T06:17:39.326Z,-2.04
2023-04-05T06:18:39.271Z,-2.01
2023-04-05T06:19:39.251Z,-1.98
2023-04-05T06:20:39.401Z,-1.93
2023-04-05T06:21:39.248Z,-1.88
2023-04-05T06:22:39.302Z,-1.85
2023-04-05T06:23:39.277Z,-1.81
2023-04-05T06:24:39.254Z,-1.76
2023-04-05T06:25:39.256Z,-1.74
2023-04-05T06:26:39.283Z,-1.69
2023-04-05T06:27:39.257Z,-1.66
2023-04-05T06:28:39.288Z,-1.60
2023-04-05T06:29:39.259Z,-1.56
2023-04-05T06:30:39.437Z,-1.50
2023-04-05T06:31:39.292Z,-1.44
2023-04-05T06:32:39.283Z,-1.40
2023-04-05T06:33:39.292Z,-1.36
2023-04-05T06:34:39.253Z,-1.31
2023-04-05T06:35:39.285Z,-1.25
2023-04-05T06:36:39.259Z,-1.20
2023-04-05T06:37:39.267Z,-1.16
2023-04-05T06:38:39.282Z,-1.11
2023-04-05T06:39:39.260Z,-1.08
2023-04-05T06:40:39.420Z,-1.02
2023-04-05T06:41:39.291Z,-0.97
2023-04-05T06:42:39.383Z,-0.92
2023-04-05T06:43:39.329Z,-0.86
2023-04-05T06:44:39.270Z,-0.80
2023-04-05T06:45:39.290Z,-0.75
2023-04-05T06:46:39.276Z,-0.70
2023-04-05T06:47:39.380Z,-0.65
2023-04-05T06:48:39.288Z,-0.59
2023-04-05T06:49:39.267Z,-0.51
2023-04-05T06:50:39.412Z,-0.46
2023-04-05T06:51:39.302Z,-0.41
2023-04-05T06:52:39.287Z,-0.37
2023-04-05T06:53:39.292Z,-0.32
2023-04-05T06:54:39.304Z,-0.28
2023-04-05T06:55:39.276Z,-0.20
2023-04-05T06:56:39.286Z,-0.15
2023-04-05T06:57:39.389Z,-0.10
2023-04-05T06:58:39.301Z,-0.04
2023-04-05T06:59:39.294Z,0.05
2023-04-05T07:00:39.390Z,0.10
2023-04-05T07:01:39.343Z,0.18
2023-04-05T07:02:39.304Z,0.24
2023-04-05T07:03:39.278Z,0.29
2023-04-05T07:04:39.346Z,0.33
2023-04-05T07:05:39.299Z,0.39
2023-04-05T07:06:39.299Z,0.44
2023-04-05T07:07:39.289Z,0.48
2023-04-05T07:08:39.295Z,0.54
2023-04-05T07:09:39.947Z,0.59
2023-04-05T07:10:39.599Z,0.64
2023-04-05T07:11:39.298Z,0.74
2023-04-05T07:12:39.292Z,0.85
2023-04-05T07:13:39.300Z,0.99
2023-04-05T07:14:39.300Z,1.16
2023-04-05T07:15:39.337Z,1.28
2023-04-05T07:16:39.304Z,1.37
2023-04-05T07:17:39.344Z,1.43
2023-04-05T07:18:39.320Z,1.59
2023-04-05T07:19:39.300Z,1.85
2023-04-05T07:20:39.709Z,2.04
2023-04-05T07:21:39.329Z,2.20
2023-04-05T07:22:39.302Z,2.36
2023-04-05T07:23:39.304Z,2.64
2023-04-05T07:24:39.342Z,2.92
2023-04-05T07:25:39.305Z,3.22
2023-04-05T07:26:39.328Z,3.51
2023-04-05T07:27:39.326Z,3.87
2023-04-05T07:28:39.314Z,4.22
2023-04-05T07:30:01.324Z,4.50
2023-04-05T07:31:01.332Z,4.46
2023-04-05T07:32:01.366Z,4.06
2023-04-05T07:33:01.300Z,3.76
2023-04-05T07:34:01.336Z,3.60
2023-04-05T07:35:01.337Z,3.46
2023-04-05T07:36:01.366Z,3.36
2023-04-05T07:37:01.334Z,3.24
2023-04-05T07:38:01.342Z,3.15
2023-04-05T07:39:01.314Z,3.05
2023-04-05T07:40:01.326Z,2.97
2023-04-05T07:41:01.318Z,2.85
2023-04-05T07:42:01.607Z,2.73
2023-04-05T07:43:01.339Z,2.61
2023-04-05T07:44:01.344Z,2.52
2023-04-05T07:45:01.332Z,2.43
2023-04-05T07:46:01.422Z,2.36
2023-04-05T07:47:01.319Z,2.34
2023-04-05T07:48:01.374Z,2.32
2023-04-05T07:49:01.334Z,2.30
2023-04-05T07:50:01.328Z,2.28
2023-04-05T07:51:01.349Z,2.28
2023-04-05T07:52:01.344Z,2.31
2023-04-05T07:53:01.352Z,2.34
2023-04-05T07:54:03.078Z,2.35
2023-04-05T07:55:01.345Z,2.39
2023-04-05T07:56:01.351Z,2.44
2023-04-05T07:57:01.367Z,2.48
2023-04-05T07:58:01.353Z,2.52
2023-04-05T07:59:01.395Z,2.55
2023-04-05T08:00:01.348Z,2.57
2023-04-05T08:01:01.341Z,2.61
2023-04-05T08:02:08.275Z,2.65
2023-04-05T08:03:02.445Z,2.67
2023-04-05T08:04:01.446Z,2.69
2023-04-05T08:05:01.395Z,2.73
2023-04-05T08:06:01.498Z,2.76
2023-04-05T08:07:01.565Z,2.75
2023-04-05T08:08:01.535Z,2.76
2023-04-05T08:09:01.528Z,2.80
2023-04-05T08:10:01.581Z,2.83
2023-04-05T08:11:01.563Z,2.88
2023-04-05T08:12:01.549Z,2.91
2023-04-05T08:13:01.588Z,2.91
2023-04-05T08:14:01.588Z,2.93
2023-04-05T08:15:01.613Z,2.96
2023-04-05T08:16:01.608Z,3.04
2023-04-05T08:17:01.624Z,3.08
2023-04-05T08:18:01.691Z,3.14
2023-04-05T08:19:01.677Z,3.23
2023-04-05T08:20:01.674Z,3.32
2023-04-05T08:21:01.662Z,3.38
2023-04-05T08:22:01.685Z,3.42
2023-04-05T08:23:01.696Z,3.45
2023-04-05T08:24:01.707Z,3.50
2023-04-05T08:25:01.750Z,3.55
2023-04-05T08:26:01.725Z,3.61
2023-04-05T08:27:01.750Z,3.66
2023-04-05T08:28:01.756Z,3.70
2023-04-05T08:29:01.774Z,3.75
2023-04-05T08:30:01.793Z,3.82
2023-04-05T08:31:01.778Z,3.88
2023-04-05T08:32:01.866Z,3.92
2023-04-05T08:33:01.874Z,3.96
2023-04-05T08:34:02.049Z,3.97
2023-04-05T08:35:01.870Z,4.05
2023-04-05T08:36:01.876Z,4.13
2023-04-05T08:37:01.853Z,4.22
2023-04-05T08:38:01.871Z,4.30
2023-04-05T08:39:01.872Z,4.37
2023-04-05T08:40:01.894Z,4.47
2023-04-05T08:41:01.924Z,4.57
2023-04-05T08:42:01.934Z,4.68
2023-04-05T08:43:01.936Z,4.77
2023-04-05T08:44:01.936Z,4.83
2023-04-05T08:45:01.937Z,4.92
2023-04-05T08:46:02.042Z,4.98
2023-04-05T08:47:01.990Z,4.99
2023-04-05T08:48:02.044Z,5.00
2023-04-05T08:49:02.011Z,5.05
2023-04-05T08:50:02.006Z,5.16
2023-04-05T08:51:02.032Z,5.24
2023-04-05T08:52:02.030Z,5.27
2023-04-05T08:53:02.056Z,5.31
2023-04-05T08:54:02.057Z,5.36
2023-04-05T08:55:02.082Z,5.38
2023-04-05T08:56:02.098Z,5.43
2023-04-05T08:57:02.093Z,5.50
2023-04-05T08:58:02.178Z,5.61
2023-04-05T08:59:02.147Z,5.67
2023-04-05T09:00:02.256Z,5.77
2023-04-05T09:01:02.193Z,5.93
2023-04-05T09:02:02.319Z,6.12
2023-04-05T09:03:02.258Z,6.37
2023-04-05T09:04:02.189Z,6.70
2023-04-05T09:05:02.182Z,7.07
2023-04-05T09:06:02.203Z,7.40
2023-04-05T09:07:02.295Z,7.63
2023-04-05T09:08:02.261Z,7.78
2023-04-05T09:09:02.276Z,8.15
2023-04-05T09:10:02.244Z,8.68
2023-04-05T09:11:02.270Z,9.13
2023-04-05T09:12:02.305Z,9.43
2023-04-05T09:13:02.309Z,9.60
2023-04-05T09:14:02.310Z,9.90
2023-04-05T09:15:02.307Z,10.19
2023-04-05T09:16:02.339Z,10.41
2023-04-05T09:17:02.393Z,10.32
2023-04-05T09:18:05.572Z,10.34
2023-04-05T09:19:02.360Z,10.48
2023-04-05T09:20:02.359Z,10.65
2023-04-05T09:21:02.390Z,10.81
2023-04-05T09:22:02.368Z,10.95
2023-04-05T09:23:02.364Z,11.06
2023-04-05T09:24:02.414Z,11.19
2023-04-05T09:25:02.353Z,11.18
2023-04-05T09:26:02.354Z,11.10
2023-04-05T09:27:02.357Z,10.95
2023-04-05T09:28:02.362Z,10.95
2023-04-05T09:29:02.384Z,11.05
2023-04-05T09:30:02.376Z,11.29
2023-04-05T09:31:02.388Z,11.56
2023-04-05T09:32:02.372Z,11.68
2023-04-05T09:33:02.438Z,11.43
2023-04-05T09:34:02.400Z,11.31
2023-04-05T09:35:02.409Z,11.45
2023-04-05T09:36:02.389Z,11.84
2023-04-05T09:37:02.385Z,12.20
2023-04-05T09:38:02.378Z,12.29
2023-04-05T09:39:02.411Z,12.34
2023-04-05T09:40:02.405Z,12.42
2023-04-05T09:41:02.439Z,12.45
2023-04-05T09:42:02.385Z,12.51
2023-04-05T09:43:02.383Z,12.46
2023-04-05T09:44:02.405Z,12.31
2023-04-05T09:45:02.716Z,12.21
2023-04-05T09:46:02.420Z,12.08
2023-04-05T09:47:02.392Z,11.95
2023-04-05T09:48:02.419Z,11.80
2023-04-05T09:49:02.414Z,11.56
2023-04-05T09:50:02.401Z,11.30
2023-04-05T09:51:10.256Z,11.17
2023-04-05T09:52:02.400Z,11.25
2023-04-05T09:53:02.391Z,11.64
2023-04-05T09:54:02.398Z,12.03
2023-04-05T09:55:02.406Z,12.34
2023-04-05T09:56:02.400Z,12.51
2023-04-05T09:57:02.389Z,12.52
2023-04-05T09:58:02.408Z,12.54
2023-04-05T09:59:02.451Z,12.63
2023-04-05T10:00:02.426Z,12.63
2023-04-05T10:01:15.778Z,12.42
2023-04-05T10:02:02.454Z,12.04
2023-04-05T10:03:02.457Z,11.88
2023-04-05T10:04:02.510Z,11.98
2023-04-05T10:05:02.499Z,12.30
2023-04-05T10:06:02.400Z,12.67
2023-04-05T10:07:02.430Z,12.93
2023-04-05T10:08:02.439Z,12.97
2023-04-05T10:09:02.424Z,12.93
2023-04-05T10:10:02.415Z,12.89
2023-04-05T10:11:02.407Z,12.94
2023-04-05T10:12:02.441Z,13.11
2023-04-05T10:13:02.423Z,13.20
2023-04-05T10:14:02.438Z,13.16
2023-04-05T10:15:02.421Z,13.11
2023-04-05T10:16:02.459Z,13.12
2023-04-05T10:17:02.431Z,13.31
2023-04-05T10:18:02.478Z,13.58
2023-04-05T10:19:02.442Z,13.85
2023-04-05T10:20:02.416Z,14.16
2023-04-05T10:21:02.442Z,13.98
2023-04-05T10:22:02.452Z,13.77
2023-04-05T10:23:02.428Z,13.80
2023-04-05T10:24:02.433Z,13.82
2023-04-05T10:25:02.437Z,13.82
2023-04-05T10:26:02.467Z,13.86
2023-04-05T10:27:02.444Z,13.86
2023-04-05T10:28:02.439Z,13.85
2023-04-05T10:29:02.445Z,13.73
2023-04-05T10:30:02.469Z,13.68
2023-04-05T10:31:02.457Z,13.54
2023-04-05T10:32:02.467Z,13.51
2023-04-05T10:33:02.618Z,13.66
2023-04-05T10:34:02.450Z,13.80
2023-04-05T10:35:02.423Z,13.97
2023-04-05T10:36:02.556Z,14.18
2023-04-05T10:37:02.522Z,14.36
2023-04-05T10:38:02.453Z,14.56
2023-04-05T10:39:02.467Z,14.56
2023-04-05T10:40:02.454Z,14.13
2023-04-05T10:41:02.486Z,13.68
2023-04-05T10:42:02.479Z,13.06
2023-04-05T10:43:02.458Z,12.62
2023-04-05T10:44:11.947Z,12.24
2023-04-05T10:45:02.531Z,11.88
2023-04-05T10:46:02.549Z,11.53
2023-04-05T10:47:02.462Z,11.38
2023-04-05T10:48:02.524Z,11.47
2023-04-05T10:49:02.504Z,11.61
2023-04-05T10:50:02.510Z,11.40
2023-04-05T10:51:02.493Z,11.15
2023-04-05T10:52:02.495Z,11.24
2023-04-05T10:53:02.513Z,11.27
2023-04-05T10:54:02.460Z,11.55
2023-04-05T10:55:02.500Z,11.88
2023-04-05T10:56:02.536Z,12.36
2023-04-05T10:57:02.477Z,12.82
2023-04-05T10:58:02.513Z,13.25
2023-04-05T10:59:02.536Z,13.71
2023-04-05T11:00:02.497Z,14.12
2023-04-05T11:01:02.548Z,14.29
2023-04-05T11:02:02.517Z,14.10
2023-04-05T11:03:02.603Z,13.96
2023-04-05T11:04:02.585Z,14.08
2023-04-05T11:05:02.553Z,14.34
2023-04-05T11:06:02.497Z,14.64
2023-04-05T11:07:02.495Z,14.98
2023-04-05T11:08:02.485Z,15.36
2023-04-05T11:09:02.495Z,15.81
2023-04-05T11:10:02.545Z,16.23
2023-04-05T11:11:02.489Z,16.36
2023-04-05T11:12:02.523Z,16.45
2023-04-05T11:13:02.507Z,16.54
2023-04-05T11:14:02.517Z,16.43
2023-04-05T11:15:02.507Z,16.11
2023-04-05T11:16:02.505Z,16.01
2023-04-05T11:17:02.586Z,16.08
2023-04-05T11:18:02.581Z,15.97
2023-04-05T11:19:02.503Z,15.66
2023-04-05T11:20:02.541Z,15.67
2023-04-05T11:21:02.511Z,15.61
2023-04-05T11:22:02.512Z,15.59
2023-04-05T11:23:02.534Z,15.45
2023-04-05T11:24:02.518Z,15.45
2023-04-05T11:25:02.533Z,15.36
2023-04-05T11:26:02.523Z,15.50
2023-04-05T11:27:02.512Z,15.17
2023-04-05T11:28:02.541Z,14.58
2023-04-05T11:29:02.533Z,13.94
2023-04-05T11:30:02.562Z,13.77
2023-04-05T11:31:02.532Z,13.98
2023-04-05T11:32:02.529Z,14.15
2023-04-05T11:33:02.543Z,14.48
2023-04-05T11:34:02.542Z,14.81
2023-04-05T11:35:02.522Z,15.07
2023-04-05T11:36:02.546Z,15.15
2023-04-05T11:37:02.531Z,15.37
2023-04-05T11:38:02.573Z,15.63
2023-04-05T11:39:02.533Z,15.90
2023-04-05T11:40:02.537Z,16.17
2023-04-05T11:41:02.536Z,16.42
2023-04-05T11:42:02.570Z,16.67
2023-04-05T11:43:02.580Z,16.67
2023-04-05T11:44:02.538Z,16.33
2023-04-05T11:45:02.545Z,16.11
2023-04-05T11:46:02.569Z,16.17
2023-04-05T11:47:02.566Z,16.17
2023-04-05T11:48:02.568Z,15.62
2023-04-05T11:49:02.565Z,15.04
2023-04-05T11:50:02.539Z,14.29
2023-04-05T11:51:02.546Z,13.44
2023-04-05T11:52:02.553Z,13.14
2023-04-05T11:53:02.578Z,13.30
2023-04-05T11:54:02.641Z,13.75
2023-04-05T11:55:03.684Z,14.19
2023-04-05T11:56:02.578Z,14.52
2023-04-05T11:57:02.560Z,14.85
2023-04-05T11:58:02.597Z,15.21
2023-04-05T11:59:02.649Z,15.21
2023-04-05T12:00:02.610Z,15.32
2023-04-05T12:01:02.621Z,15.49
2023-04-05T12:02:02.662Z,15.58
2023-04-05T12:03:02.693Z,15.26
2023-04-05T12:04:02.761Z,15.08
2023-04-05T12:05:02.688Z,15.30
2023-04-05T12:06:02.687Z,15.68
2023-04-05T12:07:02.692Z,16.07
2023-04-05T12:08:02.745Z,16.31
2023-04-05T12:09:02.698Z,16.17
2023-04-05T12:10:02.709Z,15.87
2023-04-05T12:11:02.725Z,15.05
2023-04-05T12:12:02.740Z,14.54
2023-04-05T12:13:02.780Z,14.18
2023-04-05T12:14:02.800Z,14.05
2023-04-05T12:15:02.772Z,14.20
2023-04-05T12:16:02.825Z,14.36
2023-04-05T12:17:02.809Z,14.36
2023-04-05T12:18:02.875Z,14.35
2023-04-05T12:19:02.847Z,14.39
2023-04-05T12:20:02.854Z,14.23
2023-04-05T12:21:05.754Z,14.26
2023-04-05T12:22:02.860Z,14.47
2023-04-05T12:23:02.864Z,14.76
2023-04-05T12:24:02.902Z,15.17
2023-04-05T12:25:02.898Z,15.67
2023-04-05T12:26:02.866Z,16.18
2023-04-05T12:27:02.868Z,16.56
2023-04-05T12:28:02.907Z,16.82
2023-04-05T12:29:02.871Z,16.61
2023-04-05T12:30:02.938Z,16.32
2023-04-05T12:31:02.860Z,16.28
2023-04-05T12:32:02.891Z,16.59
2023-04-05T12:33:02.978Z,16.97
2023-04-05T12:34:02.870Z,17.27
2023-04-05T12:35:02.869Z,17.66
2023-04-05T12:36:02.921Z,18.00
2023-04-05T12:37:02.878Z,18.27
2023-04-05T12:38:02.899Z,18.59
2023-04-05T12:39:02.872Z,18.78
2023-04-05T12:40:02.888Z,18.57
2023-04-05T12:41:02.876Z,18.32
2023-04-05T12:42:02.894Z,17.93
2023-04-05T12:43:02.920Z,17.52
2023-04-05T12:44:02.896Z,17.28
2023-04-05T12:45:02.874Z,17.15
2023-04-05T12:46:02.907Z,17.03
2023-04-05T12:47:02.908Z,17.17
2023-04-05T12:48:03.007Z,17.36
2023-04-05T12:49:02.892Z,17.12
2023-04-05T12:50:02.899Z,16.90
2023-04-05T12:51:02.908Z,16.73
2023-04-05T12:52:02.976Z,16.55
2023-04-05T12:53:02.921Z,16.17
2023-04-05T12:54:02.922Z,15.68
2023-04-05T12:55:02.949Z,15.01
2023-04-05T12:56:04.238Z,14.67
2023-04-05T12:57:02.947Z,14.45
2023-04-05T12:58:02.913Z,14.25
2023-04-05T12:59:02.957Z,13.79